Time;durP1;ratioP1;P1;durP2;ratioP2;P2;SDS_P1;SDS_P2;PMS_P1;PMS_P2;Temp;Humidity;BMP_temperature;BMP_pressure;BME280_temperature;BME280_humidity;BME280_pressure;Samples;Min_cycle;Max_cycle;Signal;HPM_P1;HPM_P2
2022/01/17 00:00:25;;;;;;;25.30;12.37;;;;;;;-2.96;100.00;99062.54;1730828;82;20985;-67
2022/01/17 00:02:52;;;;;;;23.18;11.83;;;;;;;-2.92;100.00;99046.98;1732509;81;21039;-67
2022/01/17 00:05:19;;;;;;;20.62;11.97;;;;;;;-2.86;100.00;99052.31;1725741;82;20987;-67
2022/01/17 00:07:46;;;;;;;21.80;12.35;;;;;;;-2.82;100.00;99046.07;1735079;81;21138;-67
2022/01/17 00:10:12;;;;;;;23.75;11.45;;;;;;;-2.78;100.00;99039.31;1737274;82;20976;-67
2022/01/17 00:12:44;;;;;;;28.07;13.10;;;;;;;-2.74;100.00;99037.39;1727413;81;21043;-67
2022/01/17 00:15:28;;;;;;;24.15;12.37;;;;;;;-2.70;100.00;99031.97;1738333;82;20996;-67
2022/01/17 00:17:57;;;;;;;21.90;11.65;;;;;;;-2.65;100.00;99032.66;1735270;82;21106;-67
2022/01/17 00:20:25;;;;;;;24.30;12.40;;;;;;;-2.62;100.00;99026.41;1727593;82;21034;-67
2022/01/17 00:22:49;;;;;;;22.52;11.43;;;;;;;-2.57;100.00;99020.48;1725471;81;21573;-67
2022/01/17 00:25:15;;;;;;;23.00;12.18;;;;;;;-2.55;100.00;99008.58;1730560;82;21494;-67
2022/01/17 00:27:42;;;;;;;24.77;11.65;;;;;;;-2.49;100.00;99010.13;1732347;81;21039;-67
2022/01/17 00:30:10;;;;;;;23.60;11.70;;;;;;;-2.43;100.00;99004.79;1727077;82;21004;-67
2022/01/17 00:32:37;;;;;;;22.62;12.10;;;;;;;-2.37;100.00;98996.50;1732815;81;21932;-67
2022/01/17 00:35:04;;;;;;;24.60;11.55;;;;;;;-2.30;100.00;98990.65;1687829;84;21018;-67
2022/01/17 00:37:31;;;;;;;20.05;11.20;;;;;;;-2.23;100.00;98997.58;1723883;82;21048;-68
2022/01/17 00:39:57;;;;;;;22.30;11.50;;;;;;;-2.17;100.00;98986.11;1711682;83;21133;-68
2022/01/17 00:42:24;;;;;;;22.35;10.53;;;;;;;-2.10;100.00;98998.09;1727103;82;21007;-68
2022/01/17 00:44:50;;;;;;;21.90;10.50;;;;;;;-2.06;100.00;98987.31;1724468;82;21079;-67
2022/01/17 00:47:17;;;;;;;21.37;10.18;;;;;;;-2.01;100.00;98978.98;1736559;82;21035;-68
2022/01/17 00:49:43;;;;;;;19.37;10.05;;;;;;;-1.95;100.00;98967.17;1721062;82;21071;-68
2022/01/17 00:52:10;;;;;;;20.57;10.20;;;;;;;-1.89;100.00;98965.81;1679713;84;21505;-67
2022/01/17 00:54:36;;;;;;;21.80;10.55;;;;;;;-1.83;100.00;98958.80;1656456;85;21067;-67
2022/01/17 00:57:04;;;;;;;23.67;11.20;;;;;;;-1.79;100.00;98956.84;1725951;82;21035;-68
2022/01/17 00:59:32;;;;;;;22.48;10.32;;;;;;;-1.72;100.00;98953.64;1717892;82;21544;-67
2022/01/17 01:01:58;;;;;;;20.35;9.98;;;;;;;-1.67;100.00;98939.67;1720827;82;21050;-68
2022/01/17 01:04:24;;;;;;;19.20;10.30;;;;;;;-1.61;100.00;98939.63;1719053;82;21095;-68
2022/01/17 01:06:51;;;;;;;20.45;9.68;;;;;;;-1.55;100.00;98947.29;1718227;82;21073;-67
2022/01/17 01:09:17;;;;;;;21.77;11.10;;;;;;;-1.54;100.00;98941.75;1731696;81;21135;-68
2022/01/17 01:11:44;;;;;;;20.35;10.53;;;;;;;-1.49;100.00;98931.78;1735138;82;21054;-67
2022/01/17 01:14:10;;;;;;;22.82;10.30;;;;;;;-1.43;100.00;98932.76;1729279;81;21046;-67
2022/01/17 01:16:37;;;;;;;22.05;10.90;;;;;;;-1.40;100.00;98925.66;1725623;82;21019;-67
2022/01/17 01:19:19;;;;;;;20.15;10.13;;;;;;;-1.34;100.00;98939.47;1730217;82;21563;-67
2022/01/17 01:29:45;;;;;;;25.25;11.60;;;;;;;-1.23;100.00;98924.92;1694124;82;21098;-67
2022/01/17 01:32:09;;;;;;;20.08;10.15;;;;;;;-1.23;100.00;98918.77;1718451;82;21050;-67
2022/01/17 01:34:40;;;;;;;19.77;10.32;;;;;;;-1.19;100.00;98920.80;1697350;82;21534;-68
2022/01/17 01:37:04;;;;;;;21.17;11.30;;;;;;;-1.18;100.00;98914.42;1720711;82;21035;-68
2022/01/17 01:39:31;;;;;;;;;;;;;;;-1.16;100.00;98917.69;1733524;81;21054;-67
2022/01/17 01:41:58;;;;;;;20.52;10.18;;;;;;;-1.16;100.00;98912.86;1735732;82;20178;-67
2022/01/17 01:44:26;;;;;;;19.65;10.03;;;;;;;-1.20;100.00;98914.31;1733180;82;21072;-67
2022/01/17 01:46:54;;;;;;;19.65;10.35;;;;;;;-1.21;100.00;98892.16;1740823;82;20991;-67
2022/01/17 01:49:21;;;;;;;23.55;10.85;;;;;;;-1.23;100.00;98879.52;1742976;81;21023;-68
2022/01/17 01:51:48;;;;;;;22.70;11.28;;;;;;;-1.22;100.00;98879.84;1735986;82;21058;-67
2022/01/17 01:54:14;;;;;;;23.65;11.38;;;;;;;-1.25;100.00;98866.92;1729614;82;21079;-68
2022/01/17 01:56:44;;;;;;;23.12;11.78;;;;;;;-1.28;100.00;98858.53;1737496;82;21039;-68
2022/01/17 01:59:12;;;;;;;24.60;11.70;;;;;;;-1.29;100.00;98840.86;1735812;81;21571;-67
2022/01/17 02:01:38;;;;;;;22.77;11.93;;;;;;;-1.29;100.00;98831.52;1731833;82;21039;-67
2022/01/17 02:04:05;;;;;;;26.50;11.85;;;;;;;-1.29;100.00;98827.00;1737559;81;21094;-67
2022/01/17 02:06:34;;;;;;;22.98;12.33;;;;;;;-1.31;100.00;98796.22;1736807;82;21042;-67
2022/01/17 02:09:02;;;;;;;27.25;13.25;;;;;;;-1.31;100.00;98796.22;1738772;82;21034;-68
2022/01/17 02:11:28;;;;;;;24.63;13.62;;;;;;;-1.33;100.00;98798.27;1738411;82;21035;-67
2022/01/17 02:13:55;;;;;;;24.80;12.93;;;;;;;-1.34;100.00;98796.11;1737448;82;21145;-68
2022/01/17 02:16:23;;;;;;;25.60;12.93;;;;;;;-1.36;100.00;98787.52;1744576;82;21046;-68
2022/01/17 02:18:49;;;;;;;25.17;12.20;;;;;;;-1.39;100.00;98770.61;1746154;80;21043;-67
2022/01/17 02:23:47;;;;;;;26.85;13.45;;;;;;;-1.42;100.00;98785.73;1739637;81;20107;-67
2022/01/17 02:26:15;;;;;;;24.98;12.58;;;;;;;-1.43;100.00;98778.75;1732537;82;21026;-67
2022/01/17 02:28:53;;;;;;;25.37;13.22;;;;;;;-1.46;100.00;98771.18;1740623;81;21531;-67
2022/01/17 02:31:21;;;;;;;24.60;13.08;;;;;;;-1.43;100.00;98766.73;1744070;82;21027;-67
2022/01/17 02:33:49;;;;;;;25.43;12.90;;;;;;;-1.44;100.00;98766.42;1735790;81;21079;-67
2022/01/17 02:36:15;;;;;;;24.10;12.15;;;;;;;-1.42;100.00;98760.88;1734535;82;21046;-66
2022/01/17 02:38:42;;;;;;;24.30;12.33;;;;;;;-1.40;100.00;98758.28;1735247;82;21079;-66
2022/01/17 02:41:09;;;;;;;25.02;12.45;;;;;;;-1.39;100.00;98755.92;1733080;82;21382;-67
2022/01/17 02:43:35;;;;;;;;;;;;;;;-1.38;100.00;98744.19;1734849;81;21098;-66
2022/01/17 02:48:33;;;;;;;25.48;13.10;;;;;;;-1.41;100.00;98726.45;1737105;82;21553;-67
2022/01/17 02:51:00;;;;;;;24.67;12.80;;;;;;;-1.40;100.00;98714.75;1740104;82;21007;-67
2022/01/17 02:53:27;;;;;;;25.90;13.72;;;;;;;-1.41;100.00;98711.26;1723347;82;21086;-67
2022/01/17 02:56:05;;;;;;;19.40;11.50;;;;;;;-1.39;100.00;98707.88;1737368;82;21106;-67
2022/01/17 02:58:33;;;;;;;23.38;12.98;;;;;;;-1.36;100.00;98701.27;1732233;82;21110;-67
2022/01/17 03:01:02;;;;;;;26.57;13.48;;;;;;;-1.36;100.00;98703.94;1733336;82;21028;-68
2022/01/17 03:03:30;;;;;;;28.30;13.32;;;;;;;-1.35;100.00;98694.90;1737105;82;21091;-68
2022/01/17 03:05:57;;;;;;;28.02;13.90;;;;;;;-1.32;100.00;98690.45;1736141;82;21039;-67
2022/01/17 03:08:25;;;;;;;24.87;13.18;;;;;;;-1.30;100.00;98684.36;1747920;80;21044;-68
2022/01/17 03:10:52;;;;;;;24.10;12.35;;;;;;;-1.29;100.00;98676.14;1727454;81;21003;-67
2022/01/17 03:13:29;;;;;;;25.95;13.30;;;;;;;-1.28;100.00;98673.77;1734212;82;21043;-68
2022/01/17 03:15:56;;;;;;;24.32;13.28;;;;;;;-1.25;100.00;98679.18;1729760;82;21066;-68
2022/01/17 03:18:31;;;;;;;23.35;12.05;;;;;;;-1.23;100.00;98678.42;1730173;82;21047;-67
2022/01/17 03:20:58;;;;;;;27.73;15.40;;;;;;;-1.21;100.00;98667.02;1717758;82;21078;-67
2022/01/17 03:23:25;;;;;;;25.52;13.22;;;;;;;-1.18;100.00;98660.72;1737412;82;21023;-67
2022/01/17 03:25:52;;;;;;;30.20;14.18;;;;;;;-1.16;100.00;98649.80;1740688;82;21524;-68
2022/01/17 03:28:18;;;;;;;27.20;13.98;;;;;;;-1.13;100.00;98648.02;1734833;82;21042;-68
2022/01/17 03:30:45;;;;;;;26.20;13.60;;;;;;;-1.11;100.00;98639.27;1730907;82;21534;-68
2022/01/17 03:33:14;;;;;;;25.82;13.18;;;;;;;-1.07;100.00;98634.61;1733362;82;21097;-67
2022/01/17 03:35:40;;;;;;;22.87;12.43;;;;;;;-1.04;100.00;98624.80;1731948;82;21002;-68
2022/01/17 03:38:08;;;;;;;26.00;13.53;;;;;;;-1.04;100.00;98610.62;1734761;82;21087;-68
2022/01/17 03:40:36;;;;;;;29.32;12.93;;;;;;;-1.03;100.00;98605.59;1737405;82;21038;-68
2022/01/17 03:43:03;;;;;;;23.00;12.28;;;;;;;-0.99;100.00;98606.75;1723579;82;21063;-68
2022/01/17 03:45:30;;;;;;;26.93;12.55;;;;;;;-0.97;100.00;98598.01;1735781;82;21051;-68
2022/01/17 03:47:57;;;;;;;24.10;12.15;;;;;;;-0.93;100.00;98585.02;1724029;82;21036;-68
2022/01/17 03:50:24;;;;;;;23.77;12.18;;;;;;;-0.90;100.00;98582.70;1726569;82;21098;-68
2022/01/17 03:54:26;;;;;;;25.00;11.50;;;;;;;-0.81;100.00;98585.86;1861694;76;22686;-68
2022/01/17 03:56:52;;;;;;;22.77;11.60;;;;;;;-0.84;100.00;98580.97;1832539;77;21071;-68
2022/01/17 03:59:19;;;;;;;24.72;12.20;;;;;;;-0.78;100.00;98578.20;1828755;77;21079;-68
2022/01/17 04:01:46;;;;;;;21.85;10.25;;;;;;;-0.75;100.00;98571.09;1828530;78;20969;-68
2022/01/17 04:04:12;;;;;;;20.05;10.82;;;;;;;-0.71;100.00;98563.44;1828170;77;21050;-67
2022/01/17 04:06:38;;;;;;;22.32;10.90;;;;;;;-0.69;100.00;98556.81;1832676;77;20966;-67
2022/01/17 04:09:05;;;;;;;25.23;10.50;;;;;;;-0.63;100.00;98556.41;1828510;77;21542;-67
2022/01/17 04:11:31;;;;;;;20.60;10.28;;;;;;;-0.58;100.00;98562.72;1829257;77;21019;-67
2022/01/17 04:13:58;;;;;;;20.70;10.13;;;;;;;-0.55;100.00;98565.45;1841261;77;21032;-67
2022/01/17 04:16:25;;;;;;;19.05;10.20;;;;;;;-0.50;100.00;98557.57;1829057;77;21882;-67
2022/01/17 04:18:54;;;;;;;17.92;9.90;;;;;;;-0.48;100.00;98547.97;1829856;77;21115;-67
2022/01/17 04:21:20;;;;;;;22.07;10.40;;;;;;;-0.43;100.00;98549.44;1829813;77;20978;-67
2022/01/17 04:23:47;;;;;;;20.20;10.45;;;;;;;-0.40;100.00;98552.47;1842752;77;21056;-67
2022/01/17 04:26:14;;;;;;;16.80;8.43;;;;;;;-0.41;100.00;98564.20;1844490;77;21445;-67
2022/01/17 04:28:40;;;;;;;23.30;11.18;;;;;;;-0.40;100.00;98561.83;1830144;77;21036;-67
2022/01/17 04:31:07;;;;;;;17.45;10.38;;;;;;;-0.41;100.00;98568.73;1829351;77;21571;-67
2022/01/17 04:33:33;;;;;;;18.70;10.23;;;;;;;-0.43;100.00;98549.44;1831057;77;21030;-67
2022/01/17 04:36:00;;;;;;;21.00;10.90;;;;;;;-0.44;100.00;98556.64;1816298;77;21001;-67
2022/01/17 04:38:27;;;;;;;22.45;10.80;;;;;;;-0.44;100.00;98557.16;1795055;78;21578;-67
2022/01/17 04:41:02;;;;;;;21.93;10.82;;;;;;;-0.49;100.00;98547.14;1829323;77;20972;-67
2022/01/17 04:45:07;;;;;;;23.25;10.80;;;;;;;-0.52;100.00;98547.61;1820230;77;21035;-67
2022/01/17 04:45:52;;;;;;;25.05;11.95;;;;;;;-0.54;100.00;98542.51;1799184;77;20984;-68
2022/01/17 04:48:18;;;;;;;21.95;11.90;;;;;;;-0.60;100.00;98550.09;1833941;77;21062;-68
2022/01/17 04:50:45;;;;;;;20.82;10.88;;;;;;;-0.62;100.00;98534.81;1842519;77;21037;-68
2022/01/17 04:53:16;;;;;;;20.15;10.15;;;;;;;-0.65;100.00;98519.75;1818690;77;21047;-68
2022/01/17 04:55:40;;;;;;;22.45;11.45;;;;;;;-0.66;100.00;98515.45;1828009;77;21020;-68
2022/01/17 04:58:06;;;;;;;19.92;10.70;;;;;;;-0.68;100.00;98505.00;1835938;75;21710;-68
2022/01/17 05:00:32;;;;;;;;;;;;;;;-0.68;100.00;98493.49;1828050;77;21477;-68
2022/01/17 05:02:59;;;;;;;20.80;10.20;;;;;;;-0.69;100.00;98476.64;1822273;77;20154;-68
2022/01/17 05:05:25;;;;;;;19.27;10.58;;;;;;;-0.71;100.00;98480.05;1819241;77;21054;-68
2022/01/17 05:07:52;;;;;;;20.30;10.68;;;;;;;-0.70;100.00;98483.02;1830060;77;21099;-68
2022/01/17 05:10:21;;;;;;;21.25;10.75;;;;;;;-0.71;100.00;98473.36;1828923;77;21054;-68
2022/01/17 05:12:49;;;;;;;18.32;9.58;;;;;;;-0.69;100.00;98463.27;1833937;77;21028;-68
2022/01/17 05:15:29;;;;;;;20.95;10.95;;;;;;;-0.68;100.00;98455.56;1828850;77;21012;-68
2022/01/17 05:20:34;;;;;;;17.87;10.82;;;;;;;-0.60;100.00;98467.74;1836332;77;20984;-68
2022/01/17 05:23:01;;;;;;;24.87;11.15;;;;;;;-0.61;100.00;98469.63;1831139;77;21071;-68
2022/01/17 05:25:27;;;;;;;17.60;10.13;;;;;;;-0.60;100.00;98471.75;1800465;77;21051;-68
2022/01/17 05:27:54;;;;;;;20.40;11.55;;;;;;;-0.58;100.00;98465.67;1834255;77;21051;-68
2022/01/17 05:30:22;;;;;;;20.92;11.10;;;;;;;-0.57;100.00;98468.09;1851539;77;21007;-68
2022/01/17 05:32:49;;;;;;;21.62;11.70;;;;;;;-0.56;100.00;98457.70;1842335;77;21558;-68
2022/01/17 05:35:15;;;;;;;;;;;;;;;-0.50;100.00;98456.77;1809295;77;20969;-68
2022/01/17 05:37:42;;;;;;;21.62;10.68;;;;;;;-0.47;100.00;98450.69;1829565;77;20142;-68
2022/01/17 05:40:09;;;;;;;;;;;;;;;-0.49;100.00;98441.55;1829650;77;20961;-68
2022/01/17 05:42:35;;;;;;;21.73;11.40;;;;;;;-0.47;100.00;98439.99;1836930;77;20392;-68
2022/01/17 05:45:02;;;;;;;20.37;10.80;;;;;;;-0.52;100.00;98436.15;1836524;77;21036;-68
2022/01/17 05:47:28;;;;;;;21.05;10.68;;;;;;;-0.48;100.00;98437.02;1850261;77;21037;-68
2022/01/17 05:49:55;;;;;;;;;;;;;;;-0.42;100.00;98434.23;1831335;77;21558;-68
2022/01/17 05:52:21;;;;;;;22.27;10.68;;;;;;;-0.37;100.00;98422.32;1829628;78;20151;-68
2022/01/17 05:54:48;;;;;;;23.42;12.47;;;;;;;-0.42;100.00;98414.69;1824981;77;21053;-68
2022/01/17 05:57:16;;;;;;;21.25;11.90;;;;;;;-0.37;100.00;98416.16;1819916;78;20997;-69
2022/01/17 05:59:43;;;;;;;23.75;12.65;;;;;;;-0.31;100.00;98408.53;1810305;78;21058;-69
2022/01/17 06:02:10;;;;;;;;;;;;;;;-0.29;100.00;98410.46;1768718;80;21005;-68
2022/01/17 06:04:36;;;;;;;22.60;11.57;;;;;;;-0.25;100.00;98404.39;1750788;81;20130;-68
2022/01/17 06:07:04;;;;;;;20.97;11.73;;;;;;;-0.25;100.00;98406.28;1758373;81;21075;-68
2022/01/17 06:09:30;;;;;;;20.40;11.95;;;;;;;-0.20;100.00;98403.17;1760631;81;21074;-67
2022/01/17 06:11:56;;;;;;;22.30;12.20;;;;;;;-0.20;100.00;98408.52;1742192;81;21466;-68
2022/01/17 06:14:23;;;;;;;23.77;12.95;;;;;;;-0.16;100.00;98406.19;1743007;80;21007;-68
2022/01/17 06:16:49;;;;;;;21.97;12.25;;;;;;;-0.16;100.00;98398.98;1754604;80;21011;-68
2022/01/17 06:19:16;;;;;;;22.80;12.75;;;;;;;-0.11;100.00;98395.62;1763298;80;21082;-68
2022/01/17 06:21:42;;;;;;;20.72;11.78;;;;;;;-0.10;100.00;98390.02;1758888;80;21018;-68
2022/01/17 06:24:09;;;;;;;22.48;11.75;;;;;;;-0.08;100.00;98386.59;1773296;80;21580;-68
2022/01/17 06:26:38;;;;;;;23.27;11.80;;;;;;;-0.04;100.00;98392.28;1759240;81;21050;-68
2022/01/17 06:29:05;;;;;;;20.70;11.97;;;;;;;-0.02;100.00;98378.95;1760069;80;21046;-68
2022/01/17 06:31:32;;;;;;;24.02;13.48;;;;;;;0.02;100.00;98375.28;1772198;80;21029;-68
2022/01/17 06:33:58;;;;;;;18.35;10.88;;;;;;;0.06;100.00;98366.25;1754296;81;21576;-68
2022/01/17 06:36:24;;;;;;;21.00;12.25;;;;;;;0.08;100.00;98359.61;1756357;80;21002;-68
2022/01/17 06:38:51;;;;;;;22.10;11.97;;;;;;;0.13;100.00;98357.56;1752728;81;21111;-68
2022/01/17 06:41:18;;;;;;;23.20;12.20;;;;;;;0.14;100.00;98341.80;1762143;80;21002;-68
2022/01/17 06:43:45;;;;;;;22.40;13.00;;;;;;;0.18;100.00;98324.22;1760617;81;21054;-68
2022/01/17 06:46:12;;;;;;;21.68;12.25;;;;;;;0.19;100.00;98313.78;1766583;80;20979;-68
2022/01/17 06:48:38;;;;;;;22.93;12.07;;;;;;;0.22;100.00;98310.10;1755246;80;21042;-68
2022/01/17 06:51:04;;;;;;;23.98;13.30;;;;;;;0.24;100.00;98297.83;1758314;80;20995;-68
2022/01/17 06:53:31;;;;;;;23.18;12.53;;;;;;;0.24;100.00;98284.45;1758661;80;21117;-69
2022/01/17 06:55:57;;;;;;;;;;;;;;;0.28;100.00;98277.56;1773471;79;21481;-74
2022/01/17 06:58:24;;;;;;;26.12;13.22;;;;;;;0.32;100.00;98259.98;1774218;80;20098;-73
2022/01/17 07:00:52;;;;;;;22.37;12.03;;;;;;;0.31;100.00;98248.45;1789905;79;21488;-74
2022/01/17 07:03:18;;;;;;;25.65;13.65;;;;;;;0.32;100.00;98264.78;1783417;78;21070;-74
2022/01/17 07:05:45;;;;;;;23.25;13.38;;;;;;;0.36;100.00;98280.64;1775752;79;21496;-74
2022/01/17 07:08:12;;;;;;;21.07;12.37;;;;;;;0.39;100.00;98331.58;1784340;78;21468;-74
2022/01/17 07:10:38;;;;;;;;;;;;;;;0.43;100.00;98338.86;1770147;79;21500;-75
2022/01/17 07:13:06;;;;;;;23.45;13.40;;;;;;;0.48;100.00;98344.32;1779438;79;20116;-73
2022/01/17 07:15:32;;;;;;;24.23;14.03;;;;;;;0.44;100.00;98358.42;1791128;79;21476;-74
2022/01/17 07:17:59;;;;;;;;;;;;;;;0.49;100.00;98344.62;1787465;78;22026;-75
2022/01/17 07:20:25;;;;;;;23.70;13.13;;;;;;;0.53;100.00;98331.56;1771019;81;20167;-73
2022/01/17 07:22:51;;;;;;;25.37;14.70;;;;;;;0.52;100.00;98309.03;1777301;78;20986;-75
2022/01/17 07:25:18;;;;;;;24.43;14.03;;;;;;;0.56;100.00;98286.89;1776648;79;20977;-75
2022/01/17 07:27:44;;;;;;;24.43;13.50;;;;;;;0.60;100.00;98249.20;1774498;79;21092;-74
2022/01/17 07:30:11;;;;;;;24.43;13.88;;;;;;;0.68;100.00;98218.50;1735676;79;20994;-73
2022/01/17 07:32:38;;;;;;;23.95;13.98;;;;;;;0.68;100.00;98192.53;1760345;79;21597;-74
2022/01/17 07:35:06;;;;;;;26.95;14.73;;;;;;;0.71;100.00;98178.64;1770433;79;21062;-74
2022/01/17 07:37:33;;;;;;;23.87;14.33;;;;;;;0.74;100.00;98186.22;1746111;79;21468;-74
2022/01/17 07:40:00;;;;;;;26.37;15.28;;;;;;;0.78;100.00;98194.56;1771986;81;20972;-75
2022/01/17 07:42:26;;;;;;;27.55;14.60;;;;;;;0.80;100.00;98192.44;1785315;79;21060;-74
2022/01/17 07:44:55;;;;;;;;;;;;;;;0.84;100.00;98205.62;1773324;79;20985;-74
2022/01/17 07:50:16;;;;;;;21.60;13.20;;;;;;;0.88;100.00;98224.99;1777934;79;21456;-75
2022/01/17 07:52:42;;;;;;;24.77;13.98;;;;;;;0.90;100.00;98234.11;1771331;79;21001;-72
2022/01/17 07:55:10;;;;;;;26.05;14.53;;;;;;;0.88;100.00;98264.36;1767435;79;21029;-73
2022/01/17 07:57:38;;;;;;;28.65;16.90;;;;;;;0.92;100.00;98252.10;1722768;83;21582;-75
2022/01/17 08:00:06;;;;;;;25.75;16.15;;;;;;;0.98;100.00;98245.75;1744086;81;21555;-73
2022/01/17 08:02:34;;;;;;;29.50;16.25;;;;;;;0.98;100.00;98234.52;1727685;82;21009;-74
2022/01/17 08:05:01;;;;;;;27.90;15.80;;;;;;;0.96;100.00;98212.49;1751895;81;21022;-74
2022/01/17 08:07:28;;;;;;;29.27;16.27;;;;;;;0.99;100.00;98192.45;1752879;81;20978;-74
2022/01/17 08:09:55;;;;;;;26.35;16.87;;;;;;;1.05;100.00;98196.81;1752058;82;21072;-74
2022/01/17 08:12:21;;;;;;;25.88;16.48;;;;;;;1.03;100.00;98182.05;1754493;82;20989;-73
2022/01/17 08:14:48;;;;;;;29.00;16.75;;;;;;;1.03;100.00;98156.59;1753025;80;21061;-72
2022/01/17 08:17:14;;;;;;;25.40;15.65;;;;;;;1.08;100.00;98150.76;1754383;81;21025;-73
2022/01/17 08:19:40;;;;;;;26.73;16.45;;;;;;;1.10;100.00;98167.38;1753978;80;21586;-72
2022/01/17 08:22:07;;;;;;;25.35;16.73;;;;;;;1.06;100.00;98139.48;1730368;82;20937;-73
2022/01/17 08:24:34;;;;;;;25.37;16.65;;;;;;;1.07;100.00;98111.61;1753423;80;21574;-73
2022/01/17 08:27:00;;;;;;;27.58;16.70;;;;;;;1.14;100.00;98126.97;1753849;80;20946;-75
2022/01/17 08:29:28;;;;;;;28.40;17.07;;;;;;;1.13;100.00;98110.63;1753422;80;21718;-72
2022/01/17 08:31:56;;;;;;;28.00;16.62;;;;;;;1.10;100.00;98106.30;1763376;80;21831;-72
2022/01/17 08:34:22;;;;;;;28.87;17.80;;;;;;;1.09;100.00;98119.41;1758929;79;21085;-73
2022/01/17 08:36:49;;;;;;;27.93;16.95;;;;;;;1.17;100.00;98139.08;1761296;80;20990;-72
2022/01/17 08:39:15;;;;;;;;;;;;;;;1.14;100.00;98117.59;1743840;80;21873;-73
2022/01/17 08:41:42;;;;;;;27.93;16.62;;;;;;;1.11;100.00;98087.80;1764370;80;20104;-73
2022/01/17 08:44:12;;;;;;;24.80;16.27;;;;;;;1.13;100.00;98101.78;1764532;81;21057;-73
2022/01/17 08:46:39;;;;;;;27.35;16.93;;;;;;;1.20;100.00;98098.38;1764416;80;20962;-73
2022/01/17 08:49:06;;;;;;;28.83;17.62;;;;;;;1.23;100.00;98089.83;1749206;82;21047;-73
2022/01/17 08:51:32;;;;;;;25.72;16.65;;;;;;;1.20;100.00;98099.71;1751693;81;20959;-72
2022/01/17 08:53:59;;;;;;;25.97;16.82;;;;;;;1.20;100.00;98100.53;1751295;81;21105;-73
2022/01/17 08:56:27;;;;;;;;;;;;;;;1.28;100.00;98103.27;1772988;81;21059;-73
2022/01/17 08:58:54;;;;;;;27.02;16.55;;;;;;;1.31;100.00;98090.17;1772623;79;20402;-72
2022/01/17 09:01:22;;;;;;;26.87;16.42;;;;;;;1.22;100.00;98091.69;1772087;80;20959;-71
2022/01/17 09:03:51;;;;;;;25.52;16.85;;;;;;;1.25;100.00;98088.50;1774282;80;21049;-72
2022/01/17 09:06:17;;;;;;;25.43;16.42;;;;;;;1.33;100.00;98092.61;1773459;79;20992;-72
2022/01/17 09:08:44;;;;;;;26.82;16.40;;;;;;;1.34;100.00;98088.87;1753098;80;21527;-71
2022/01/17 09:11:10;;;;;;;25.25;15.30;;;;;;;1.32;100.00;98067.67;1772402;81;21537;-71
2022/01/17 09:13:37;;;;;;;23.15;15.13;;;;;;;1.34;100.00;98060.73;1752383;80;21052;-71
2022/01/17 09:16:04;;;;;;;;;;;;;;;1.40;100.00;98044.43;1779119;80;21354;-72
2022/01/17 09:18:30;;;;;;;20.92;14.23;;;;;;;1.41;100.00;98032.66;1746274;81;20116;-76
2022/01/17 09:20:56;;;;;;;23.70;15.63;;;;;;;1.31;100.00;98030.41;1776922;79;21536;-76
2022/01/17 09:23:23;;;;;;;22.55;15.05;;;;;;;1.34;100.00;98021.33;1772970;79;21061;-76
2022/01/17 09:25:49;;;;;;;21.85;14.70;;;;;;;1.41;100.00;98001.81;1773029;80;21583;-76
2022/01/17 09:28:16;;;;;;;24.55;15.55;;;;;;;1.43;100.00;97992.16;1800297;78;21487;-76
2022/01/17 09:30:42;;;;;;;25.68;15.55;;;;;;;1.38;100.00;98002.30;1740519;80;21825;-76
2022/01/17 09:33:09;;;;;;;21.10;15.10;;;;;;;1.40;100.00;97994.83;1740712;82;21080;-76
2022/01/17 09:35:35;;;;;;;22.80;14.98;;;;;;;1.46;100.00;97980.39;1785445;80;21040;-76
2022/01/17 09:38:02;;;;;;;;;;;;;;;1.47;100.00;97978.53;1790088;79;21036;-72
2022/01/17 09:40:28;;;;;;;21.25;15.13;;;;;;;1.46;100.00;97980.92;1788086;79;20108;-73
2022/01/17 09:42:58;;;;;;;24.30;15.13;;;;;;;1.46;100.00;97967.52;1795210;79;21073;-72
2022/01/17 09:45:23;;;;;;;24.40;15.53;;;;;;;1.50;100.00;97957.37;1779742;79;21039;-73
2022/01/17 09:47:50;;;;;;;24.52;15.90;;;;;;;1.47;100.00;97955.20;1791038;77;21039;-72
2022/01/17 09:50:22;;;;;;;23.87;14.93;;;;;;;1.45;100.00;97957.87;1786234;80;20988;-73
2022/01/17 09:52:51;;;;;;;23.25;15.93;;;;;;;1.52;100.00;97957.13;1783203;80;21025;-74
2022/01/17 09:55:24;;;;;;;23.02;15.00;;;;;;;1.52;100.00;97947.74;1782724;80;20999;-72
2022/01/17 09:57:54;;;;;;;26.02;15.50;;;;;;;1.50;100.00;97941.80;1765213;80;21518;-72
2022/01/17 10:00:26;;;;;;;23.95;15.98;;;;;;;1.51;100.00;97940.75;1762053;80;20989;-72
2022/01/17 10:02:53;;;;;;;23.00;14.83;;;;;;;1.57;100.00;97942.39;1745739;80;21038;-72
2022/01/17 10:05:20;;;;;;;25.45;15.38;;;;;;;1.59;100.00;97931.42;1760853;81;21018;-72
2022/01/17 10:07:55;;;;;;;;;;;;;;;1.58;100.00;97929.80;1767078;79;21609;-72
2022/01/17 10:10:56;;;;;;;22.73;13.72;;;;;;;1.58;100.00;97929.27;1765025;80;20444;-72
2022/01/17 10:13:37;;;;;;;21.77;14.20;;;;;;;1.61;100.00;97932.77;1790867;79;21045;-73
2022/01/17 10:16:12;;;;;;;22.82;15.08;;;;;;;1.63;100.00;97921.80;1792520;79;20986;-72
2022/01/17 10:19:00;;;;;;;21.57;13.90;;;;;;;1.59;100.00;97912.13;1814510;77;21065;-72
2022/01/17 10:21:38;;;;;;;21.82;14.45;;;;;;;1.65;100.00;97908.40;1759051;81;20990;-72
2022/01/17 10:24:19;;;;;;;21.25;14.68;;;;;;;1.70;100.00;97909.75;1807701;77;21004;-71
2022/01/17 10:37:12;;;;;;;19.57;13.70;;;;;;;1.74;100.00;97847.00;1807172;79;21008;-72
2022/01/17 10:40:03;;;;;;;17.85;12.80;;;;;;;1.76;100.00;97842.20;1803353;77;21466;-73
2022/01/17 10:42:42;;;;;;;19.55;14.20;;;;;;;1.82;100.00;97838.47;1795801;79;20981;-72
2022/01/17 10:45:21;;;;;;;19.20;13.75;;;;;;;1.83;100.00;97817.28;1797222;79;20998;-72
2022/01/17 10:47:50;;;;;;;19.05;12.70;;;;;;;1.80;100.00;97805.74;1822496;77;21579;-72
2022/01/17 10:50:26;;;;;;;21.77;13.90;;;;;;;1.80;100.00;97798.51;1810210;79;20985;-73
2022/01/17 10:52:55;;;;;;;;;;;;;;;1.86;100.00;97802.81;1798838;79;21082;-74
2022/01/17 10:55:27;;;;;;;22.75;14.07;;;;;;;1.84;100.00;97804.16;1797278;79;20434;-75
2022/01/17 10:58:03;;;;;;;20.40;13.72;;;;;;;1.74;100.00;97801.41;1795543;79;21002;-73
2022/01/17 11:00:35;;;;;;;21.55;14.15;;;;;;;1.75;100.00;97804.37;1781969;79;20969;-73
2022/01/17 11:03:11;;;;;;;24.10;15.53;;;;;;;1.81;100.00;97776.48;1794544;79;21640;-73
2022/01/17 11:05:39;;;;;;;21.02;14.10;;;;;;;1.80;100.00;97771.68;1802688;79;21040;-78
2022/01/17 11:08:08;;;;;;;17.98;13.08;;;;;;;1.77;100.00;97762.01;1815973;79;21096;-72
2022/01/17 11:10:44;;;;;;;17.52;12.28;;;;;;;1.76;100.00;97758.52;1798827;79;21033;-73
2022/01/17 11:13:15;;;;;;;19.67;12.57;;;;;;;1.82;100.00;97767.37;1771130;79;21030;-74
2022/01/17 11:15:44;;;;;;;18.17;12.05;;;;;;;1.82;100.00;97757.45;1793073;79;21054;-74
2022/01/17 11:18:21;;;;;;;15.45;11.78;;;;;;;1.78;100.00;97749.66;1808394;77;21073;-72
2022/01/17 11:20:49;;;;;;;17.17;11.45;;;;;;;1.78;100.00;97729.53;1805753;79;21469;-73
2022/01/17 11:23:15;;;;;;;16.70;11.43;;;;;;;1.86;100.00;97730.37;1790471;79;21025;-73
2022/01/17 11:25:43;;;;;;;16.07;12.13;;;;;;;1.89;100.00;97735.73;1796643;79;21033;-74
2022/01/17 11:28:10;;;;;;;15.60;11.45;;;;;;;1.86;100.00;97732.24;1809561;77;21033;-72
2022/01/17 11:30:38;;;;;;;16.75;10.43;;;;;;;1.87;100.00;97721.27;1798789;79;21029;-73
2022/01/17 11:33:09;;;;;;;15.05;10.63;;;;;;;1.94;100.00;97712.95;1797683;79;21025;-73
2022/01/17 11:35:41;;;;;;;17.80;11.43;;;;;;;1.98;100.00;97706.77;1780079;79;20986;-73
2022/01/17 11:38:14;;;;;;;16.15;10.98;;;;;;;1.95;100.00;97690.39;1794635;79;21054;-72
2022/01/17 11:40:42;;;;;;;14.58;10.38;;;;;;;1.96;100.00;97686.65;1772831;79;21037;-73
2022/01/17 11:43:22;;;;;;;15.18;11.00;;;;;;;2.04;100.00;97674.59;1810055;77;21505;-74
2022/01/17 11:45:51;;;;;;;16.30;10.43;;;;;;;2.06;100.00;97673.77;1807807;79;21012;-69
2022/01/17 11:48:28;;;;;;;15.93;10.45;;;;;;;2.06;100.00;97671.90;1800079;79;21502;-69
2022/01/17 11:50:57;;;;;;;14.53;10.00;;;;;;;2.07;100.00;97651.23;1793406;79;20981;-69